createdAt,value
2022-11-12T00:00:03.615Z,1.27
2022-11-12T00:02:35.255Z,1.10
2022-11-12T00:05:06.274Z,1.42
2022-11-12T00:07:37.228Z,1.30
2022-11-12T01:17:40.841Z,2.30
2022-11-12T01:20:10.869Z,1.15
2022-11-12T01:22:40.906Z,0.95
2022-11-12T01:25:11.043Z,1.92
2022-11-12T01:27:41.030Z,1.50
2022-11-12T01:30:12.379Z,1.65
2022-11-12T01:32:42.687Z,1.13
2022-11-12T01:35:12.547Z,1.35
2022-11-12T01:37:43.594Z,3.28
2022-11-12T01:40:13.872Z,3.20
2022-11-12T01:42:43.776Z,1.25
2022-11-12T01:45:17.810Z,0.73
2022-11-12T01:47:50.402Z,0.90
2022-11-12T01:50:24.344Z,1.52
2022-11-12T01:53:03.233Z,1.92
2022-11-12T01:55:35.325Z,0.85
2022-11-12T01:58:14.293Z,2.45
2022-11-12T02:00:45.153Z,1.08
2022-11-12T02:03:26.650Z,1.45
2022-11-12T02:06:00.017Z,1.27
2022-11-12T02:08:31.056Z,1.15
2022-11-12T02:11:01.007Z,1.13
2022-11-12T02:13:48.878Z,1.73
2022-11-12T03:32:01.084Z,5.13
2022-11-12T03:34:30.932Z,2.75
2022-11-12T03:37:00.769Z,1.42
2022-11-12T03:39:30.609Z,1.92
2022-11-12T03:42:00.897Z,1.40
2022-11-12T03:44:30.743Z,1.88
2022-11-12T03:47:00.567Z,1.63
2022-11-12T03:49:30.419Z,0.95
2022-11-12T03:52:00.282Z,1.98
2022-11-12T03:54:30.350Z,1.13
2022-11-12T03:57:00.343Z,2.60
2022-11-12T03:59:30.212Z,0.77
2022-11-12T04:02:00.654Z,1.15
2022-11-12T04:04:50.188Z,2.30
2022-11-12T04:07:38.380Z,1.80
2022-11-12T04:10:08.399Z,1.10
2022-11-12T04:12:56.995Z,2.30
2022-11-12T04:15:26.840Z,2.28
2022-11-12T04:18:14.605Z,1.45
2022-11-12T04:21:02.531Z,1.02
2022-11-12T04:23:32.422Z,1.25
2022-11-12T04:26:20.626Z,4.30
2022-11-12T04:29:08.561Z,1.70
2022-11-12T04:38:00.410Z,0.70
2022-11-12T04:40:48.804Z,1.00
2022-11-12T04:43:37.940Z,2.67
2022-11-12T04:46:08.120Z,3.50
2022-11-12T04:48:38.499Z,2.10
2022-11-12T04:51:28.892Z,1.10
2022-11-12T04:53:59.180Z,1.20
2022-11-12T04:56:29.181Z,1.50
2022-11-12T04:58:59.154Z,1.02
2022-11-12T05:01:29.148Z,1.58
2022-11-12T05:03:59.156Z,2.10
2022-11-12T05:06:47.307Z,1.05
2022-11-12T05:09:17.299Z,2.50
2022-11-12T05:11:47.232Z,1.05
2022-11-12T05:14:17.468Z,2.38
2022-11-12T05:16:47.974Z,1.25
2022-11-12T05:19:17.931Z,1.42
2022-11-12T05:22:06.439Z,1.08
2022-11-12T05:24:42.340Z,0.52
2022-11-12T05:27:20.106Z,0.93
2022-11-12T05:29:50.048Z,0.80
2022-11-12T05:32:20.430Z,2.20
2022-11-12T05:34:50.452Z,0.82
2022-11-12T05:37:20.414Z,0.93
2022-11-12T05:42:35.864Z,0.75
2022-11-12T05:45:05.951Z,1.45
2022-11-12T05:47:35.832Z,2.00
2022-11-12T05:50:05.849Z,0.98
2022-11-12T05:52:35.836Z,3.40
2022-11-12T05:55:05.772Z,1.15
2022-11-12T05:57:35.698Z,1.40
2022-11-12T06:00:05.649Z,0.73
2022-11-12T06:02:35.589Z,2.95
2022-11-12T06:05:05.546Z,2.47
2022-11-12T06:07:35.431Z,2.08
2022-11-12T06:10:05.315Z,1.38
2022-11-12T06:12:35.177Z,2.75
2022-11-12T06:15:05.101Z,2.40
2022-11-12T06:17:35.177Z,1.48
2022-11-12T06:20:05.100Z,1.15
2022-11-12T06:22:35.197Z,1.90
2022-11-12T06:25:05.105Z,5.35
2022-11-12T06:27:35.179Z,2.47
2022-11-12T06:30:05.159Z,1.20
2022-11-12T06:32:35.090Z,1.33
2022-11-12T06:35:05.013Z,1.10
2022-11-12T06:37:35.135Z,2.08
2022-11-12T06:40:05.050Z,1.83
2022-11-12T06:42:36.034Z,1.83
2022-11-12T06:45:05.964Z,1.90
2022-11-12T06:47:35.994Z,1.58
2022-11-12T06:50:06.163Z,1.00
2022-11-12T06:52:36.223Z,1.60
2022-11-12T06:55:06.211Z,2.45
2022-11-12T06:57:36.221Z,1.35
2022-11-12T07:00:06.197Z,1.13
2022-11-12T07:02:36.096Z,2.20
2022-11-12T07:05:05.986Z,1.30
2022-11-12T07:07:35.923Z,1.20
2022-11-12T07:10:06.098Z,2.30
2022-11-12T07:40:49.908Z,3.20
2022-11-12T07:43:19.791Z,3.15
2022-11-12T07:45:49.752Z,2.20
2022-11-12T07:48:19.656Z,1.80
2022-11-12T07:50:49.553Z,2.58
2022-11-12T07:53:19.501Z,3.58
2022-11-12T07:55:56.482Z,4.57
2022-11-12T07:58:27.214Z,2.40
2022-11-12T08:00:57.638Z,2.95
2022-11-12T08:03:27.745Z,2.38
2022-11-12T08:05:57.654Z,2.38
2022-11-12T08:08:28.452Z,4.15
2022-11-12T08:11:03.038Z,3.03
2022-11-12T08:13:32.932Z,3.10
2022-11-12T08:16:03.019Z,2.60
2022-11-12T08:18:33.697Z,3.55
2022-11-12T08:21:05.085Z,3.30
2022-11-12T08:23:35.585Z,4.07
2022-11-12T08:26:09.206Z,2.70
2022-11-12T08:28:40.199Z,6.57
2022-11-12T08:31:30.395Z,3.22
2022-11-12T08:34:01.544Z,2.28
2022-11-12T08:36:31.689Z,2.30
2022-11-12T08:39:01.955Z,2.80
2022-11-12T08:41:31.905Z,2.97
2022-11-12T08:44:07.185Z,2.70
2022-11-12T08:46:38.723Z,2.53
2022-11-12T08:49:09.710Z,2.10
2022-11-12T08:51:41.354Z,3.50
2022-11-12T08:54:11.725Z,4.05
2022-11-12T08:56:42.684Z,1.77
2022-11-12T08:59:12.595Z,2.42
2022-11-12T09:01:42.994Z,2.83
2022-11-12T09:04:13.035Z,3.40
2022-11-12T09:06:44.180Z,3.45
2022-11-12T09:09:14.533Z,3.17
2022-11-12T09:11:44.422Z,5.78
2022-11-12T09:14:15.427Z,2.33
2022-11-12T09:16:46.009Z,2.85
2022-11-12T09:19:15.994Z,4.75
2022-11-12T09:21:45.954Z,3.22
2022-11-12T09:24:15.936Z,3.10
2022-11-12T09:26:45.855Z,2.50
2022-11-12T09:29:15.777Z,2.67
2022-11-12T09:31:49.716Z,1.80
2022-11-12T09:34:19.630Z,4.15
2022-11-12T09:36:49.564Z,2.58
2022-11-12T09:39:19.934Z,1.73
2022-11-12T09:41:50.517Z,2.33
2022-11-12T09:44:22.761Z,2.30
2022-11-12T09:47:15.438Z,1.50
2022-11-12T09:50:11.958Z,2.15
2022-11-12T09:52:44.887Z,4.53
2022-11-12T09:55:15.208Z,3.67
2022-11-12T09:57:45.564Z,4.72
2022-11-12T10:00:23.333Z,2.85
2022-11-12T10:03:05.755Z,4.22
2022-11-12T10:05:41.806Z,3.88
2022-11-12T10:11:01.156Z,3.80
2022-11-12T10:13:34.153Z,2.92
2022-11-12T10:16:35.230Z,3.53
2022-11-12T10:19:08.263Z,4.03
2022-11-12T10:52:58.127Z,1.90
2022-11-12T10:55:30.153Z,2.38
2022-11-12T10:58:10.712Z,2.28
2022-11-12T11:00:54.201Z,2.15
2022-11-12T11:03:25.323Z,2.38
2022-11-12T11:06:05.502Z,3.47
2022-11-12T11:08:37.582Z,4.45
2022-11-12T11:11:22.130Z,3.20
2022-11-12T11:13:55.780Z,2.50
2022-11-12T11:16:27.865Z,4.00
2022-11-12T11:19:08.121Z,2.88
2022-11-12T11:21:46.981Z,2.60
2022-11-12T11:24:24.580Z,3.30
2022-11-12T11:27:08.301Z,2.45
2022-11-12T11:29:44.615Z,2.33
2022-11-12T11:32:24.169Z,2.88
2022-11-12T11:35:12.334Z,5.00
2022-11-12T11:37:48.762Z,2.83
2022-11-12T11:40:34.147Z,1.98
2022-11-12T11:43:22.342Z,2.00
2022-11-12T11:46:14.146Z,3.72
2022-11-12T11:48:52.937Z,2.38
2022-11-12T11:51:28.777Z,4.03
2022-11-12T11:54:18.625Z,2.28
2022-11-12T11:56:48.991Z,2.35
2022-11-12T11:59:21.612Z,2.88
2022-11-12T12:02:03.767Z,2.75
2022-11-12T12:04:51.312Z,2.80
2022-11-12T12:07:41.161Z,2.45
2022-11-12T12:10:17.590Z,2.40
2022-11-12T12:12:50.537Z,3.25
2022-11-12T12:15:33.738Z,2.10
2022-11-12T12:18:22.061Z,2.47
2022-11-12T12:21:13.083Z,2.80
2022-11-12T12:23:51.735Z,2.83
2022-11-12T12:26:24.897Z,2.67
2022-11-12T12:29:24.084Z,3.58
2022-11-12T12:32:23.069Z,2.00
2022-11-12T12:34:56.401Z,3.63
2022-11-12T12:37:41.507Z,4.10
2022-11-12T12:40:29.423Z,3.22
2022-11-12T12:43:08.408Z,2.97
2022-11-12T12:45:38.252Z,2.53
2022-11-12T12:48:10.277Z,2.95
2022-11-12T12:50:41.243Z,2.67
2022-11-12T12:53:30.110Z,2.75
2022-11-12T12:56:01.673Z,3.95
2022-11-12T12:58:52.084Z,2.83
2022-11-12T13:01:24.987Z,3.97
2022-11-12T13:06:26.926Z,2.63
2022-11-12T13:09:01.512Z,3.80
2022-11-12T13:12:02.074Z,2.75
2022-11-12T13:14:41.258Z,3.30
2022-11-12T13:17:12.426Z,4.38
2022-11-12T13:19:46.948Z,3.00
2022-11-12T13:22:24.401Z,3.47
2022-11-12T13:25:12.540Z,3.03
2022-11-12T13:27:43.135Z,3.42
2022-11-12T13:30:13.877Z,3.28
2022-11-12T13:32:46.924Z,4.10
2022-11-12T13:35:22.729Z,5.13
2022-11-12T13:38:10.827Z,7.85
2022-11-12T13:40:46.735Z,3.88
2022-11-12T13:45:46.408Z,5.75
2022-11-12T13:48:42.529Z,4.88
2022-11-12T13:51:24.319Z,3.60
2022-11-12T13:53:54.721Z,3.58
2022-11-12T13:56:31.783Z,4.18
2022-11-12T13:59:17.719Z,3.03
2022-11-12T14:01:49.005Z,5.05
2022-11-12T14:04:28.101Z,5.68
2022-11-12T14:09:55.817Z,4.43
2022-11-12T14:12:38.321Z,5.50
2022-11-12T14:15:08.589Z,4.38
2022-11-12T14:17:50.698Z,4.55
2022-11-12T14:20:23.779Z,3.33
2022-11-12T14:22:53.737Z,3.40
2022-11-12T14:25:27.435Z,3.35
2022-11-12T14:27:58.280Z,3.90
2022-11-12T14:30:35.569Z,6.40
2022-11-12T14:33:12.861Z,6.38
2022-11-12T14:35:43.385Z,2.95
2022-11-12T14:38:13.228Z,5.50
2022-11-12T14:40:48.706Z,3.22
2022-11-12T14:43:37.235Z,3.65
2022-11-12T14:46:08.194Z,7.55
2022-11-12T14:48:55.290Z,4.88
2022-11-12T14:51:29.319Z,4.30
2022-11-12T14:54:05.261Z,4.88
2022-11-12T14:59:06.887Z,5.50
2022-11-12T15:04:28.471Z,4.13
2022-11-12T15:07:00.052Z,6.30
2022-11-12T15:09:37.815Z,4.72
2022-11-12T15:12:11.394Z,4.53
2022-11-12T15:14:47.227Z,6.72
2022-11-12T15:17:29.939Z,5.30
2022-11-12T15:20:04.110Z,4.70
2022-11-12T15:22:35.840Z,4.68
2022-11-12T15:25:22.547Z,4.63
2022-11-12T15:27:53.949Z,4.15
2022-11-12T15:30:26.984Z,5.15
2022-11-12T15:33:21.820Z,6.68
2022-11-12T15:35:58.787Z,4.47
2022-11-12T15:38:34.119Z,6.25
2022-11-12T15:41:04.200Z,5.15
2022-11-12T15:43:44.516Z,6.38
2022-11-12T15:46:20.048Z,4.18
2022-11-12T15:48:55.581Z,3.90
2022-11-12T15:53:55.216Z,4.03
2022-11-12T15:56:26.105Z,5.32
2022-11-12T15:58:55.981Z,5.13
2022-11-12T16:01:27.790Z,5.10
2022-11-12T16:03:57.696Z,6.32
2022-11-12T16:19:58.733Z,4.10
2022-11-12T16:22:28.745Z,3.97
2022-11-12T16:24:58.748Z,4.03
2022-11-12T16:27:28.596Z,5.03
2022-11-12T16:29:58.639Z,5.35
2022-11-12T16:32:28.544Z,4.93
2022-11-12T16:35:01.057Z,4.32
2022-11-12T16:37:31.395Z,7.65
2022-11-12T16:40:01.264Z,5.28
2022-11-12T16:42:32.162Z,4.05
2022-11-12T16:45:02.194Z,6.82
2022-11-12T16:47:32.041Z,4.70
2022-11-12T16:50:01.923Z,6.38
2022-11-12T16:52:31.755Z,7.60
2022-11-12T16:55:04.729Z,4.75
2022-11-12T16:57:34.986Z,5.35
2022-11-12T17:00:05.081Z,4.93
2022-11-12T17:02:38.025Z,4.10
2022-11-12T17:05:17.731Z,5.18
2022-11-12T17:07:47.584Z,6.65
2022-11-12T17:10:17.961Z,5.65
2022-11-12T17:12:51.291Z,5.72
2022-11-12T17:15:21.570Z,7.20
2022-11-12T17:17:51.971Z,4.43
2022-11-12T17:20:23.046Z,5.88
2022-11-12T17:22:53.306Z,6.25
2022-11-12T17:25:23.185Z,5.75
2022-11-12T17:27:53.066Z,5.90
2022-11-12T17:30:22.997Z,4.05
2022-11-12T17:32:54.817Z,4.18
2022-11-12T17:35:24.682Z,6.18
2022-11-12T17:37:55.746Z,4.03
2022-11-12T17:40:27.029Z,5.82
2022-11-12T17:42:57.129Z,5.47
2022-11-12T17:45:27.377Z,5.65
2022-11-12T17:47:57.227Z,4.60
2022-11-12T17:50:27.081Z,5.50
2022-11-12T17:52:57.501Z,5.90
2022-11-12T17:55:27.769Z,6.85
2022-11-12T17:57:58.028Z,6.65
2022-11-12T18:00:27.868Z,6.50
2022-11-12T18:03:01.000Z,5.18
2022-11-12T18:05:30.937Z,7.38
2022-11-12T18:08:01.563Z,6.07
2022-11-12T18:10:32.224Z,6.70
2022-11-12T18:13:02.169Z,7.45
2022-11-12T18:15:34.086Z,5.70
2022-11-12T18:18:06.140Z,5.55
2022-11-12T18:20:36.210Z,7.60
2022-11-12T18:23:06.077Z,6.45
2022-11-12T18:25:38.623Z,8.10
2022-11-12T18:28:10.332Z,7.00
2022-11-12T18:30:41.509Z,8.27
2022-11-12T18:33:11.467Z,6.35
2022-11-12T18:35:41.320Z,6.90
2022-11-12T18:38:11.207Z,7.15
2022-11-12T18:40:41.063Z,7.15
2022-11-12T18:43:12.089Z,5.13
2022-11-12T18:45:42.140Z,5.90
2022-11-12T18:48:13.182Z,7.13
2022-11-12T18:50:43.512Z,6.10
2022-11-12T18:53:14.363Z,7.35
2022-11-12T18:55:45.343Z,6.88
2022-11-12T18:58:16.450Z,8.18
2022-11-12T19:00:46.922Z,6.70
2022-11-12T19:03:16.842Z,9.20
2022-11-12T19:05:46.913Z,6.07
2022-11-12T19:08:16.916Z,9.15
2022-11-12T19:10:46.802Z,6.32
2022-11-12T19:13:16.677Z,6.35
2022-11-12T19:15:47.503Z,7.28
2022-11-12T19:18:17.378Z,6.75
2022-11-12T19:20:47.231Z,7.97
2022-11-12T19:23:17.282Z,7.60
2022-11-12T19:25:47.186Z,7.22
2022-11-12T19:28:17.073Z,6.25
2022-11-12T19:30:46.921Z,9.52
2022-11-12T19:33:16.855Z,6.20
2022-11-12T19:35:46.871Z,6.53
2022-11-12T19:38:17.378Z,6.95
2022-11-12T19:40:47.264Z,8.50
2022-11-12T19:43:17.173Z,8.50
2022-11-12T19:45:47.259Z,8.48
2022-11-12T19:48:17.121Z,7.05
2022-11-12T19:50:47.070Z,7.45
2022-11-12T19:53:16.909Z,8.07
2022-11-12T19:55:46.774Z,8.13
2022-11-12T19:58:17.660Z,6.53
2022-11-12T20:00:47.618Z,6.22
2022-11-12T20:03:22.114Z,11.05
2022-11-12T20:05:54.202Z,11.50
2022-11-12T20:08:27.995Z,12.65
2022-11-12T20:10:58.305Z,6.82
2022-11-12T20:13:28.265Z,8.98
2022-11-12T20:15:58.454Z,14.00
2022-11-12T20:18:28.499Z,7.18
2022-11-12T20:21:00.275Z,7.20
2022-11-12T20:23:31.242Z,8.15
2022-11-12T20:26:05.596Z,7.72
2022-11-12T20:28:36.411Z,7.82
2022-11-12T20:31:08.468Z,9.90
2022-11-12T20:33:42.251Z,7.93
2022-11-12T20:36:13.674Z,13.77
2022-11-12T20:38:44.605Z,11.93
2022-11-12T20:41:18.472Z,13.20
2022-11-12T21:40:19.941Z,7.72
2022-11-12T21:42:50.975Z,7.95
2022-11-12T21:45:21.007Z,10.77
2022-11-12T21:47:50.881Z,7.60
2022-11-12T21:50:20.940Z,6.53
2022-11-12T21:52:50.844Z,8.60
2022-11-12T21:55:20.823Z,8.30
2022-11-12T21:57:50.686Z,7.25
2022-11-12T22:00:41.039Z,7.85
2022-11-12T22:03:10.691Z,7.93
2022-11-12T22:05:40.979Z,8.35
2022-11-12T22:08:10.929Z,9.18
2022-11-12T22:10:40.833Z,8.75
2022-11-12T22:13:26.426Z,9.15
2022-11-12T22:15:58.217Z,7.10
2022-11-12T22:18:28.550Z,6.93
2022-11-12T22:21:02.305Z,6.47
2022-11-12T22:23:34.556Z,8.75
2022-11-12T22:26:05.189Z,6.00
2022-11-12T22:28:37.055Z,6.22
2022-11-12T22:31:08.164Z,7.35
2022-11-12T22:33:38.192Z,7.20
2022-11-12T22:36:10.882Z,8.73
